Time;durP1;ratioP1;P1;durP2;ratioP2;P2;SDS_P1;SDS_P2;PMS_P1;PMS_P2;Temp;Humidity;BMP_temperature;BMP_pressure;BME280_temperature;BME280_humidity;BME280_pressure;Samples;Min_cycle;Max_cycle;Signal;HPM_P1;HPM_P2
2022/01/03 00:00:13;;;;;;;151.20;137.80;;;11.20;99.90;;;;;;6069781;23;20143;-85
2022/01/03 00:02:40;;;;;;;171.80;157.25;;;11.30;99.90;;;;;;6068821;23;20177;-85
2022/01/03 00:05:07;;;;;;;190.48;175.48;;;11.20;99.90;;;;;;6068801;23;20167;-86
2022/01/03 00:07:44;;;;;;;216.60;200.30;;;11.20;99.90;;;;;;6094272;23;20152;-86
2022/01/03 00:10:12;;;;;;;195.30;180.35;;;11.20;99.90;;;;;;6094342;23;20554;-85
2022/01/03 00:12:41;;;;;;;153.02;139.82;;;11.10;99.90;;;;;;6068091;23;20516;-86
2022/01/03 00:15:11;;;;;;;156.55;142.10;;;11.10;99.90;;;;;;6069902;23;20477;-86
2022/01/03 00:17:40;;;;;;;146.52;133.63;;;11.10;99.90;;;;;;6094000;23;20620;-86
2022/01/03 00:20:15;;;;;;;210.73;194.07;;;11.00;99.90;;;;;;6094175;23;20139;-86
2022/01/03 00:23:05;;;;;;;179.38;165.05;;;11.00;99.90;;;;;;6068500;23;20148;-85
2022/01/03 00:25:50;;;;;;;196.85;180.52;;;11.00;99.90;;;;;;6093513;23;20174;-85
2022/01/03 00:28:26;;;;;;;183.70;168.05;;;11.00;99.90;;;;;;6093755;23;20594;-86
2022/01/03 00:30:56;;;;;;;153.38;140.18;;;11.00;99.90;;;;;;6094030;23;20127;-86
2022/01/03 00:33:23;;;;;;;159.00;145.65;;;10.90;99.90;;;;;;6093159;23;20171;-85
2022/01/03 00:35:58;;;;;;;125.57;112.75;;;10.90;99.90;;;;;;6067308;23;20155;-85
2022/01/03 00:38:27;;;;;;;129.60;117.35;;;11.00;99.90;;;;;;6093133;23;20132;-86
2022/01/03 00:40:54;;;;;;;159.73;144.95;;;10.90;99.90;;;;;;6093719;23;20139;-86
2022/01/03 00:43:20;;;;;;;147.77;134.13;;;10.80;99.90;;;;;;6093516;23;20147;-86
2022/01/03 00:45:45;;;;;;;195.20;179.50;;;10.90;99.90;;;;;;6093205;23;20163;-86
2022/01/03 00:48:12;;;;;;;159.20;145.43;;;10.90;99.90;;;;;;6068862;23;20492;-86
2022/01/03 00:50:39;;;;;;;183.77;168.25;;;10.90;99.90;;;;;;6093963;23;20144;-85
2022/01/03 00:53:35;;;;;;;188.63;173.95;;;10.90;99.90;;;;;;6070126;22;20206;-88
2022/01/03 00:56:48;;;;;;;188.15;173.32;;;10.80;99.90;;;;;;6065753;23;20242;-88
2022/01/03 01:03:15;;;;;;;144.38;130.82;;;10.80;99.90;;;;;;6084377;23;20204;-87
2022/01/03 01:05:55;;;;;;;124.63;111.82;;;10.80;99.90;;;;;;6067321;23;20161;-87
2022/01/03 01:09:17;;;;;;;97.90;78.28;;;10.80;99.90;;;;;;6060549;23;20159;-87
2022/01/03 01:15:26;;;;;;;85.78;44.90;;;10.70;99.90;;;;;;6004444;23;20173;-87
2022/01/03 01:22:13;;;;;;;82.60;43.83;;;10.60;99.90;;;;;;6048263;23;20147;-87
2022/01/03 01:32:42;;;;;;;;;;;;;;;;;;;;;
2022/01/03 01:42:25;;;;;;;105.10;91.07;;;10.60;99.90;;;;;;6104357;23;20166;-87
2022/01/03 01:47:51;;;;;;;111.47;88.45;;;10.60;99.90;;;;;;6119327;23;20509;-87
2022/01/03 01:50:59;;;;;;;114.35;99.63;;;10.60;99.90;;;;;;6122700;23;20242;-87
2022/01/03 01:56:52;;;;;;;139.70;125.93;;;10.60;99.90;;;;;;6037971;23;20622;-87
2022/01/03 02:00:10;;;;;;;167.02;153.25;;;10.60;99.90;;;;;;6034618;23;20248;-87
2022/01/03 02:10:36;;;;;;;;;;;;;;;;;;;;;
2022/01/03 02:16:49;;;;;;;134.85;121.53;;;10.60;99.90;;;;;;6117232;23;20206;-87
2022/01/03 02:19:24;;;;;;;113.97;93.90;;;10.60;99.90;;;;;;6009766;23;20162;-87
2022/01/03 02:26:39;;;;;;;;;;;;;;;;;;;;;
2022/01/03 02:29:31;;;;;;;99.80;79.25;;;10.70;99.90;;;;;;6035876;23;20544;-87
2022/01/03 02:36:31;;;;;;;80.25;29.98;;;10.60;99.90;;;;;;6064676;23;20194;-86
2022/01/03 02:39:51;;;;;;;79.93;24.58;;;10.70;99.90;;;;;;6064528;23;20664;-86
2022/01/03 02:42:37;;;;;;;78.65;31.38;;;10.60;99.90;;;;;;6010351;23;20558;-87
2022/01/03 02:45:49;;;;;;;;;;;;;;;;;;;;;
2022/01/03 02:49:01;;;;;;;85.18;39.20;;;10.50;99.90;;;;;;6044610;23;20243;-87
2022/01/03 02:59:23;;;;;;;84.07;28.95;;;10.50;99.90;;;;;;5981649;24;20146;-87
2022/01/03 03:25:30;;;;;;;;;;;;;;;;;;;;;
2022/01/03 03:28:49;;;;;;;75.35;18.17;;;10.60;99.90;;;;;;6029936;23;20328;-89
2022/01/03 03:35:51;;;;;;;;;;;;;;;;;;;;;
2022/01/03 03:39:24;;;;;;;;;;;;;;;;;;;;;
2022/01/03 03:42:24;;;;;;;;;;;;;;;;;;;;;
2022/01/03 03:45:00;;;;;;;77.95;20.33;;;10.60;99.90;;;;;;5951428;23;20250;-88
2022/01/03 03:51:41;;;;;;;74.93;15.55;;;10.60;99.90;;;;;;6048587;23;20166;-88
2022/01/03 03:54:28;;;;;;;76.63;14.40;;;10.60;99.90;;;;;;6068009;23;20182;-88
2022/01/03 03:57:38;;;;;;;78.45;18.48;;;10.60;99.90;;;;;;6096294;23;20151;-87
2022/01/03 04:04:54;;;;;;;;;;;;;;;;;;;;;
2022/01/03 04:08:10;;;;;;;79.10;14.30;;;10.40;99.90;;;;;;6063885;23;20227;-88
2022/01/03 04:12:05;;;;;;;;;;;;;;;;;;;;;
2022/01/03 04:14:38;;;;;;;;;;;;;;;;;;;;;
2022/01/03 04:18:00;;;;;;;75.38;15.90;;;10.30;99.90;;;;;;6122191;23;20233;-87
2022/01/03 04:20:53;;;;;;;76.25;21.85;;;10.30;99.90;;;;;;6034616;23;20152;-87
2022/01/03 04:24:10;;;;;;;75.10;18.30;;;10.20;99.90;;;;;;6030514;23;20149;-87
2022/01/03 04:27:07;;;;;;;78.20;23.15;;;10.20;99.90;;;;;;6130638;23;20488;-87
2022/01/03 04:30:58;;;;;;;86.28;38.15;;;10.10;99.90;;;;;;6123246;23;20164;-87
2022/01/03 04:33:47;;;;;;;78.40;28.73;;;10.20;99.90;;;;;;6120918;23;20178;-87
2022/01/03 04:36:33;;;;;;;;;;;;;;;;;;;;;
2022/01/03 04:43:21;;;;;;;85.78;41.47;;;10.10;99.90;;;;;;6076946;23;20157;-87
2022/01/03 04:50:17;;;;;;;;;;;;;;;;;;;;;
2022/01/03 04:53:28;;;;;;;;;;;;;;;;;;;;;
2022/01/03 05:01:03;;;;;;;;;;;;;;;;;;;;;
2022/01/03 05:04:07;;;;;;;76.82;16.45;;;10.20;99.90;;;;;;5861069;24;20680;-87
2022/01/03 06:21:10;;;;;;;;;;;;;;;;;;;;;
2022/01/03 06:27:05;;;;;;;84.60;34.38;;;9.90;99.90;;;;;;6079444;23;20282;-87
2022/01/03 06:30:11;;;;;;;81.18;24.20;;;9.90;99.90;;;;;;6069134;23;20155;-87
2022/01/03 06:33:35;;;;;;;78.63;25.85;;;9.90;99.90;;;;;;6069615;23;20179;-87
2022/01/03 06:40:24;;;;;;;80.43;18.23;;;9.90;99.90;;;;;;6006341;23;20592;-87
2022/01/03 06:43:13;;;;;;;91.20;55.08;;;9.90;99.90;;;;;;6011469;23;20157;-87
2022/01/03 06:45:58;;;;;;;89.00;49.78;;;9.90;99.90;;;;;;5981979;23;20176;-87
2022/01/03 06:49:08;;;;;;;;;;;;;;;;;;;;;
2022/01/03 06:52:07;;;;;;;87.18;40.20;;;9.90;99.90;;;;;;6014786;23;20224;-87
2022/01/03 06:55:38;;;;;;;90.18;39.90;;;9.90;99.90;;;;;;6090168;22;20289;-86
2022/01/03 06:58:27;;;;;;;102.28;63.03;;;9.90;99.90;;;;;;6121948;23;20147;-86
2022/01/03 07:01:56;;;;;;;;;;;;;;;;;;;;;
2022/01/03 07:04:55;;;;;;;156.35;142.23;;;9.90;99.90;;;;;;6123018;23;20245;-87
2022/01/03 07:08:00;;;;;;;113.30;91.07;;;9.90;99.90;;;;;;6096538;23;20229;-86
2022/01/03 07:10:39;;;;;;;109.20;97.03;;;10.00;99.90;;;;;;6079816;23;20146;-87
2022/01/03 07:22:48;;;;;;;104.68;69.53;;;10.00;99.90;;;;;;6120693;23;20181;-86
2022/01/03 07:32:45;;;;;;;89.28;54.10;;;9.90;99.90;;;;;;6085346;23;20508;-86
2022/01/03 07:35:23;;;;;;;87.75;49.83;;;9.90;99.90;;;;;;6148186;23;20177;-86
2022/01/03 07:38:16;;;;;;;;;;;;;;;;;;;;;
2022/01/03 07:40:48;;;;;;;130.43;117.47;;;9.90;99.90;;;;;;6093081;23;20535;-86
2022/01/03 07:43:42;;;;;;;166.15;152.40;;;9.80;99.90;;;;;;6067005;23;20156;-86
2022/01/03 07:47:17;;;;;;;200.00;185.00;;;9.80;99.90;;;;;;6061460;23;20604;-86
2022/01/03 07:50:28;;;;;;;162.20;147.77;;;9.80;99.90;;;;;;6010538;23;20494;-86
2022/01/03 07:53:36;;;;;;;144.35;131.75;;;9.80;99.90;;;;;;6009298;23;20180;-86
2022/01/03 07:56:31;;;;;;;156.88;143.77;;;9.80;99.90;;;;;;6045133;23;20147;-86
2022/01/03 07:59:06;;;;;;;140.90;127.95;;;9.80;99.90;;;;;;6067085;23;20517;-86
2022/01/03 08:01:45;;;;;;;158.95;145.10;;;9.90;99.90;;;;;;6068765;23;20147;-86
2022/01/03 08:04:50;;;;;;;145.98;132.95;;;9.90;99.90;;;;;;6067980;23;20177;-87
2022/01/03 08:08:43;;;;;;;152.70;139.23;;;10.00;99.90;;;;;;6089883;23;20144;-87
2022/01/03 08:10:38;;;;;;;161.43;147.65;;;10.00;99.90;;;;;;6100542;23;20608;-86
2022/01/03 08:13:04;;;;;;;132.98;120.40;;;10.00;99.90;;;;;;6094476;23;20175;-86
2022/01/03 08:19:39;;;;;;;161.15;147.90;;;10.10;99.90;;;;;;6033465;23;20546;-86
2022/01/03 08:22:21;;;;;;;180.05;165.30;;;10.10;99.90;;;;;;6031711;23;20155;-86
2022/01/03 08:24:50;;;;;;;134.27;122.13;;;10.20;99.90;;;;;;6067884;23;20194;-86
2022/01/03 08:27:30;;;;;;;145.35;132.23;;;10.20;99.90;;;;;;6093264;23;20218;-86
2022/01/03 08:30:20;;;;;;;100.30;86.55;;;10.20;99.90;;;;;;6093837;23;20458;-86
2022/01/03 08:33:22;;;;;;;97.05;77.85;;;10.30;99.90;;;;;;6066677;23;20182;-86
2022/01/03 08:35:48;;;;;;;101.90;87.82;;;10.30;99.90;;;;;;6067563;23;20186;-86
2022/01/03 08:38:16;;;;;;;104.03;93.07;;;10.40;99.90;;;;;;6093228;23;20477;-86
2022/01/03 08:41:03;;;;;;;93.95;70.45;;;10.40;99.90;;;;;;6067852;23;20163;-86
2022/01/03 08:43:29;;;;;;;97.30;71.75;;;10.50;99.90;;;;;;6093339;23;20174;-85
2022/01/03 08:45:54;;;;;;;105.60;85.07;;;10.60;99.90;;;;;;6092891;23;20170;-86
2022/01/03 08:48:27;;;;;;;157.50;143.90;;;10.60;99.90;;;;;;6093130;23;20193;-85
2022/01/03 08:51:25;;;;;;;197.95;182.88;;;10.70;99.90;;;;;;6093492;23;20461;-86
2022/01/03 08:54:14;;;;;;;200.38;184.85;;;10.70;99.90;;;;;;6103661;23;20221;-86
2022/01/03 08:56:46;;;;;;;158.80;145.27;;;10.80;99.90;;;;;;6033206;23;20206;-86
2022/01/03 09:00:13;;;;;;;;;;;;;;;;;;;;;
2022/01/03 09:05:39;;;;;;;100.53;86.47;;;10.90;99.90;;;;;;6120044;23;20198;-86
2022/01/03 09:08:43;;;;;;;91.40;56.55;;;10.90;99.90;;;;;;6096142;23;20147;-86
2022/01/03 09:21:05;;;;;;;80.95;19.27;;;11.00;99.90;;;;;;6214036;23;20144;-86
2022/01/03 09:39:02;;;;;;;80.45;17.10;;;11.00;99.90;;;;;;6117755;23;20202;-87
2022/01/03 09:42:08;;;;;;;74.32;16.40;;;10.90;99.90;;;;;;6020577;23;20168;-87
2022/01/03 09:56:21;;;;;;;;;;;;;;;;;;;;;
2022/01/03 09:59:07;;;;;;;;;;;;;;;;;;;;;
2022/01/03 10:02:29;;;;;;;;;;;;;;;;;;;;;
2022/01/03 10:31:03;;;;;;;;;;;;;;;;;;;;;
2022/01/03 11:04:26;;;;;;;86.22;51.08;;;11.40;99.90;;;;;;6045825;23;20248;-87
2022/01/03 11:20:34;;;;;;;110.82;99.38;;;11.60;99.90;;;;;;5986365;23;20177;-87
2022/01/03 11:22:45;;;;;;;105.40;94.28;;;11.60;99.90;;;;;;5995438;23;20164;-88
2022/01/03 11:32:44;;;;;;;102.80;91.85;;;11.60;99.90;;;;;;6122191;23;20161;-87
2022/01/03 11:39:16;;;;;;;120.80;109.10;;;11.40;99.90;;;;;;6033868;23;20506;-87
2022/01/03 11:53:09;;;;;;;117.05;105.57;;;11.20;99.90;;;;;;5874547;24;20187;-87
2022/01/03 12:03:36;;;;;;;92.13;61.67;;;11.20;99.90;;;;;;5711997;25;20214;-87
2022/01/03 12:09:01;;;;;;;85.22;41.10;;;11.30;99.90;;;;;;6122577;23;20216;-87
2022/01/03 12:12:17;;;;;;;85.20;47.90;;;11.30;99.90;;;;;;6123612;23;20166;-87
2022/01/03 12:54:07;;;;;;;76.47;24.17;;;11.60;99.90;;;;;;6050104;23;20280;-87
2022/01/03 12:56:32;;;;;;;77.38;26.48;;;11.60;99.90;;;;;;6112596;23;20531;-88
2022/01/03 12:59:09;;;;;;;76.30;27.50;;;11.60;99.90;;;;;;6137715;23;20174;-88
2022/01/03 13:01:35;;;;;;;72.65;14.05;;;11.60;99.90;;;;;;6137078;23;20569;-88
2022/01/03 13:04:18;;;;;;;71.70;17.33;;;11.60;99.90;;;;;;6129003;23;20216;-87
2022/01/03 13:06:45;;;;;;;83.40;32.53;;;11.60;99.90;;;;;;6132449;23;20354;-88
2022/01/03 13:09:13;;;;;;;76.90;26.02;;;11.60;99.90;;;;;;6132970;23;20150;-87
2022/01/03 13:11:50;;;;;;;74.63;22.52;;;11.60;99.90;;;;;;6132768;23;20147;-87
2022/01/03 13:14:20;;;;;;;75.78;19.80;;;11.60;99.90;;;;;;6107253;23;20174;-87
2022/01/03 13:16:56;;;;;;;73.80;19.60;;;11.70;99.90;;;;;;6105298;23;20147;-87
2022/01/03 13:19:32;;;;;;;80.75;27.20;;;11.60;99.90;;;;;;6106096;23;20205;-87
2022/01/03 13:22:09;;;;;;;82.25;34.78;;;11.60;99.90;;;;;;6130127;23;20146;-84
2022/01/03 13:24:40;;;;;;;79.05;27.50;;;11.60;99.90;;;;;;6132614;23;20158;-87
2022/01/03 13:27:11;;;;;;;75.28;22.27;;;11.60;99.90;;;;;;6104298;23;20480;-87
2022/01/03 13:29:45;;;;;;;81.15;34.80;;;11.60;99.90;;;;;;6101370;23;20229;-87
2022/01/03 13:32:17;;;;;;;78.97;32.95;;;11.60;99.90;;;;;;6101527;23;20178;-86
2022/01/03 13:34:45;;;;;;;86.07;41.58;;;11.60;99.90;;;;;;6128201;23;20159;-87
2022/01/03 13:37:12;;;;;;;87.07;46.40;;;11.60;99.90;;;;;;6102230;23;20148;-87
2022/01/03 13:39:40;;;;;;;88.55;48.22;;;11.60;99.90;;;;;;6104108;23;20152;-87
2022/01/03 13:42:11;;;;;;;85.78;45.10;;;11.50;99.90;;;;;;6106655;23;20184;-87
2022/01/03 13:44:48;;;;;;;80.93;36.13;;;11.50;99.90;;;;;;6132907;23;20209;-87
2022/01/03 13:50:01;;;;;;;78.68;17.90;;;11.50;99.90;;;;;;6135302;23;20253;-87
2022/01/03 13:52:31;;;;;;;73.35;15.25;;;11.50;99.90;;;;;;6109263;23;20179;-87
2022/01/03 13:55:05;;;;;;;71.18;15.93;;;11.50;99.90;;;;;;6136716;23;20236;-87
2022/01/03 13:57:35;;;;;;;74.68;13.23;;;11.50;99.90;;;;;;6106964;23;20189;-87
2022/01/03 14:00:06;;;;;;;77.40;15.23;;;11.40;99.90;;;;;;6132959;23;20127;-86
2022/01/03 14:02:34;;;;;;;84.00;24.02;;;11.30;99.90;;;;;;6105645;23;20158;-85
2022/01/03 14:05:00;;;;;;;74.72;19.00;;;11.30;99.90;;;;;;6131722;23;20173;-85
2022/01/03 14:07:29;;;;;;;79.32;29.90;;;11.20;99.90;;;;;;6128756;23;20173;-86
2022/01/03 14:09:58;;;;;;;81.10;35.88;;;11.20;99.90;;;;;;6105827;23;20186;-85
2022/01/03 14:12:27;;;;;;;80.28;28.38;;;11.20;99.90;;;;;;6106674;23;20573;-86
2022/01/03 14:15:05;;;;;;;86.20;44.58;;;11.20;99.90;;;;;;6134711;23;20166;-86
2022/01/03 14:17:31;;;;;;;80.68;34.25;;;11.10;99.90;;;;;;6106397;23;20143;-86
2022/01/03 14:20:06;;;;;;;80.20;38.47;;;11.10;99.90;;;;;;6130348;23;20139;-86
2022/01/03 14:22:38;;;;;;;89.85;59.67;;;11.10;99.90;;;;;;6130485;23;20157;-84
2022/01/03 14:25:09;;;;;;;108.05;93.25;;;11.10;99.90;;;;;;6130378;23;20288;-86
2022/01/03 14:28:00;;;;;;;120.40;108.72;;;11.00;99.90;;;;;;6130055;23;20174;-85
2022/01/03 14:30:30;;;;;;;112.68;101.47;;;11.00;99.90;;;;;;6128938;23;20141;-84
2022/01/03 14:32:58;;;;;;;115.25;103.82;;;11.00;99.90;;;;;;6131169;23;20179;-85
2022/01/03 14:35:46;;;;;;;96.45;67.82;;;10.90;99.90;;;;;;6104125;23;20167;-84
2022/01/03 14:38:14;;;;;;;93.88;50.80;;;10.90;99.90;;;;;;6129926;23;20123;-84
2022/01/03 14:40:45;;;;;;;83.47;35.10;;;10.80;99.90;;;;;;6130509;23;20150;-83
2022/01/03 14:43:23;;;;;;;91.10;52.92;;;10.80;99.90;;;;;;6132367;23;20143;-84
2022/01/03 14:45:51;;;;;;;87.00;45.20;;;10.60;99.90;;;;;;6132182;23;20564;-85
2022/01/03 14:48:21;;;;;;;114.10;93.72;;;10.70;99.90;;;;;;6130973;23;20154;-84
2022/01/03 14:50:47;;;;;;;128.45;114.93;;;10.60;99.90;;;;;;6102477;23;20182;-83
2022/01/03 14:53:14;;;;;;;183.10;168.35;;;10.60;99.90;;;;;;6126528;23;20178;-83
2022/01/03 14:55:43;;;;;;;208.48;192.63;;;10.50;99.90;;;;;;6101545;23;20146;-83
2022/01/03 14:58:17;;;;;;;203.18;187.40;;;10.50;99.90;;;;;;6127559;23;20150;-84
2022/01/03 15:00:43;;;;;;;158.65;144.45;;;10.50;99.90;;;;;;6130364;23;20158;-84
2022/01/03 15:03:09;;;;;;;140.70;128.20;;;10.40;99.90;;;;;;6129500;23;20146;-83
2022/01/03 15:05:34;;;;;;;130.80;118.43;;;10.30;99.90;;;;;;6128262;23;20174;-84
2022/01/03 15:08:02;;;;;;;111.63;99.73;;;10.30;99.90;;;;;;6128023;23;20143;-84
2022/01/03 15:10:28;;;;;;;122.13;110.40;;;10.40;99.90;;;;;;6103068;23;20151;-84
2022/01/03 15:12:54;;;;;;;128.17;115.87;;;10.30;99.90;;;;;;6101951;23;20186;-84
2022/01/03 15:15:20;;;;;;;136.57;123.63;;;10.30;99.90;;;;;;6128616;23;20186;-84
2022/01/03 15:17:46;;;;;;;128.50;116.47;;;10.30;99.90;;;;;;6129175;23;20492;-84
2022/01/03 15:20:14;;;;;;;107.50;95.03;;;10.30;99.90;;;;;;6103381;23;20143;-84
2022/01/03 15:22:40;;;;;;;122.75;110.85;;;10.30;99.90;;;;;;6104172;23;20383;-84
2022/01/03 15:25:06;;;;;;;142.65;129.13;;;10.40;99.90;;;;;;6129416;23;20167;-83
2022/01/03 15:27:32;;;;;;;122.10;109.43;;;10.30;99.90;;;;;;6106166;23;20147;-84
2022/01/03 15:29:59;;;;;;;99.70;88.17;;;10.30;99.90;;;;;;6129949;23;20154;-83
2022/01/03 15:32:24;;;;;;;110.90;98.22;;;10.40;99.90;;;;;;6104652;23;20620;-84
2022/01/03 15:34:50;;;;;;;131.40;118.73;;;10.40;99.90;;;;;;6127800;23;20197;-83
2022/01/03 15:37:16;;;;;;;108.33;96.57;;;10.40;99.90;;;;;;6128022;23;20143;-84
2022/01/03 15:39:45;;;;;;;112.63;101.17;;;10.40;99.90;;;;;;6125699;23;20226;-83
2022/01/03 15:42:11;;;;;;;95.93;81.45;;;10.40;99.90;;;;;;6125947;23;20377;-84
2022/01/03 15:44:37;;;;;;;151.57;138.13;;;10.40;99.90;;;;;;6126266;23;20193;-83
2022/01/03 15:47:04;;;;;;;163.73;149.73;;;10.40;99.90;;;;;;6126376;23;20685;-83
2022/01/03 15:49:31;;;;;;;177.63;163.23;;;10.40;99.90;;;;;;6125137;23;20509;-83
2022/01/03 15:51:58;;;;;;;185.07;170.52;;;10.30;99.90;;;;;;6098831;23;20534;-83
2022/01/03 15:54:23;;;;;;;207.75;192.63;;;10.40;99.90;;;;;;6099408;23;20213;-83
2022/01/03 15:56:49;;;;;;;206.67;191.33;;;10.30;99.90;;;;;;6125696;23;20139;-83
2022/01/03 15:59:16;;;;;;;211.88;196.60;;;10.40;99.90;;;;;;6125394;23;20150;-83
2022/01/03 16:01:42;;;;;;;209.60;193.60;;;10.40;99.90;;;;;;6099907;23;20241;-84
2022/01/03 16:04:09;;;;;;;196.75;181.15;;;10.30;99.90;;;;;;6126210;23;20167;-83
2022/01/03 16:06:34;;;;;;;263.20;245.88;;;10.20;99.90;;;;;;6099575;23;20591;-84
2022/01/03 16:09:00;;;;;;;240.33;223.83;;;10.30;99.90;;;;;;6125163;23;20257;-84
2022/01/03 16:11:26;;;;;;;197.73;182.23;;;10.30;99.90;;;;;;6125239;23;20174;-84
2022/01/03 16:13:52;;;;;;;171.77;157.90;;;10.30;99.90;;;;;;6100032;23;20687;-84
2022/01/03 16:16:18;;;;;;;227.70;211.63;;;10.30;99.90;;;;;;6125777;23;20166;-83
2022/01/03 16:18:45;;;;;;;223.40;208.02;;;10.30;99.90;;;;;;6099503;23;20154;-83
2022/01/03 16:21:11;;;;;;;202.27;187.55;;;10.20;99.90;;;;;;6100434;23;20166;-83
2022/01/03 16:23:37;;;;;;;210.50;195.20;;;10.30;99.90;;;;;;6124593;23;20166;-84
2022/01/03 16:26:03;;;;;;;200.95;186.13;;;10.30;99.90;;;;;;6125622;23;20389;-84
2022/01/03 16:28:29;;;;;;;248.02;231.05;;;10.40;99.90;;;;;;6099660;23;20150;-83
2022/01/03 16:30:56;;;;;;;228.40;212.38;;;10.40;99.90;;;;;;6124572;23;20177;-82
2022/01/03 16:33:25;;;;;;;256.60;239.68;;;10.50;99.90;;;;;;6097778;23;20181;-83
2022/01/03 16:35:51;;;;;;;231.85;215.45;;;10.40;99.90;;;;;;6123823;23;20217;-82
2022/01/03 16:38:17;;;;;;;266.90;249.47;;;10.40;99.90;;;;;;6098451;23;20212;-84
2022/01/03 16:40:46;;;;;;;305.98;287.30;;;10.30;99.90;;;;;;6098789;23;20378;-84
2022/01/03 16:43:18;;;;;;;318.92;299.63;;;10.30;99.90;;;;;;6097448;23;20160;-84
2022/01/03 16:45:43;;;;;;;291.60;274.33;;;10.30;99.90;;;;;;6098817;23;20159;-84
2022/01/03 16:48:12;;;;;;;316.00;296.83;;;10.20;99.90;;;;;;6123800;23;20653;-85
2022/01/03 16:50:40;;;;;;;287.52;270.65;;;10.20;99.90;;;;;;6124054;23;20143;-85
2022/01/03 16:53:10;;;;;;;280.15;263.33;;;10.10;99.90;;;;;;6124340;23;20178;-84
2022/01/03 16:55:39;;;;;;;290.95;274.00;;;10.10;99.90;;;;;;6097946;23;20147;-84
2022/01/03 16:58:17;;;;;;;281.67;264.20;;;10.10;99.90;;;;;;6097966;23;20228;-85
2022/01/03 17:04:17;;;;;;;282.70;265.83;;;10.10;99.90;;;;;;6143815;23;20209;-85
2022/01/03 17:06:49;;;;;;;260.27;243.90;;;10.10;99.90;;;;;;6126597;23;20516;-85
2022/01/03 17:09:57;;;;;;;254.25;238.35;;;10.00;99.90;;;;;;6101975;23;20146;-85
2022/01/03 17:12:32;;;;;;;278.50;261.80;;;10.10;99.90;;;;;;6099962;23;20652;-84
2022/01/03 17:19:02;;;;;;;208.82;193.95;;;10.10;99.90;;;;;;6115753;23;20205;-85
2022/01/03 17:21:59;;;;;;;185.00;171.30;;;10.00;99.90;;;;;;6012773;23;20184;-85
2022/01/03 17:28:23;;;;;;;;;;;;;;;;;;;;;
2022/01/03 17:41:53;;;;;;;195.38;180.93;;;9.90;99.90;;;;;;5953875;24;20234;-85
2022/01/03 18:00:28;;;;;;;;;;;;;;;;;;;;;
2022/01/03 18:03:52;;;;;;;174.68;160.82;;;10.00;99.90;;;;;;6128326;23;20190;-84
2022/01/03 18:07:35;;;;;;;;;;;;;;;;;;;;;
2022/01/03 18:14:08;;;;;;;200.32;185.60;;;10.10;99.90;;;;;;6039519;23;20558;-83
2022/01/03 18:17:56;;;;;;;;;;;;;;;;;;;;;
2022/01/03 18:20:51;;;;;;;195.95;181.30;;;10.10;99.90;;;;;;5948689;24;20151;-84
2022/01/03 18:24:13;;;;;;;175.82;162.55;;;10.10;99.90;;;;;;5979813;23;20631;-84
2022/01/03 18:37:59;;;;;;;159.80;147.00;;;9.90;99.90;;;;;;5938556;24;20166;-84
2022/01/03 18:41:33;;;;;;;150.45;137.50;;;10.00;99.90;;;;;;6029230;23;20205;-85
2022/01/03 18:55:21;;;;;;;158.90;145.95;;;9.80;99.90;;;;;;6080519;23;20198;-85
2022/01/03 19:03:19;;;;;;;172.32;158.48;;;9.90;99.90;;;;;;6102456;23;20167;-85
2022/01/03 19:06:14;;;;;;;;;;;;;;;;;;;;;
2022/01/03 19:23:36;;;;;;;;;;;;;;;;;;;;;
2022/01/03 19:26:59;;;;;;;;;;;;;;;;;;;;;
2022/01/03 19:30:38;;;;;;;135.85;123.80;;;9.90;99.90;;;;;;5743157;24;20235;-85
2022/01/03 19:50:34;;;;;;;143.23;130.85;;;10.00;99.90;;;;;;6042722;23;20156;-85
2022/01/03 20:19:36;;;;;;;;;;;;;;;;;;;;;
2022/01/03 20:32:35;;;;;;;135.70;123.47;;;9.80;99.90;;;;;;6159148;23;20229;-86
2022/01/03 21:01:26;;;;;;;198.15;183.43;;;9.80;99.90;;;;;;6121160;23;20205;-84
2022/01/03 21:05:08;;;;;;;;;;;;;;;;;;;;;
2022/01/03 21:09:01;;;;;;;;;;;;;;;;;;;;;
2022/01/03 21:23:11;;;;;;;;;;;;;;;;;;;;;
2022/01/03 21:40:19;;;;;;;190.63;175.88;;;9.80;99.90;;;;;;5986814;24;20162;-83
2022/01/03 21:48:51;;;;;;;166.98;153.55;;;9.70;99.90;;;;;;6156061;23;20172;-85
2022/01/03 21:58:41;;;;;;;137.10;124.80;;;9.60;99.90;;;;;;6205407;23;20179;-84
2022/01/03 22:01:31;;;;;;;134.48;122.25;;;9.60;99.90;;;;;;6216004;23;20148;-84
2022/01/03 22:05:01;;;;;;;125.75;114.00;;;9.60;99.90;;;;;;6190666;23;20164;-85
2022/01/03 22:10:50;;;;;;;126.97;114.72;;;9.70;99.90;;;;;;6142576;23;20201;-84
2022/01/03 22:16:07;;;;;;;135.60;123.65;;;9.60;99.90;;;;;;6069420;23;20179;-84
2022/01/03 22:19:32;;;;;;;;;;;;;;;;;;;;;
2022/01/03 22:22:29;;;;;;;115.90;104.68;;;9.70;99.90;;;;;;6068868;23;20168;-84
2022/01/03 22:25:15;;;;;;;111.43;100.47;;;9.60;99.90;;;;;;6103014;23;20239;-84
2022/01/03 22:28:18;;;;;;;171.98;157.95;;;9.60;99.90;;;;;;6069280;23;20148;-84
2022/01/03 22:31:24;;;;;;;120.30;108.90;;;9.60;99.90;;;;;;6104506;23;20169;-85
2022/01/03 22:34:33;;;;;;;126.07;114.07;;;9.50;99.90;;;;;;6129796;23;20246;-84
2022/01/03 22:40:46;;;;;;;127.50;115.88;;;9.40;99.90;;;;;;6129582;23;20266;-85
2022/01/03 22:47:08;;;;;;;121.78;110.05;;;9.40;99.90;;;;;;6129930;23;20327;-85
2022/01/03 22:52:39;;;;;;;129.77;117.85;;;9.40;99.90;;;;;;6100106;23;20198;-84
2022/01/03 22:55:15;;;;;;;132.13;119.75;;;9.30;99.90;;;;;;6099596;23;20629;-84
2022/01/03 22:58:14;;;;;;;127.07;115.30;;;9.30;99.90;;;;;;6077500;23;20147;-84
2022/01/03 23:00:59;;;;;;;129.98;118.22;;;9.30;99.90;;;;;;6076010;23;20511;-84
2022/01/03 23:03:44;;;;;;;127.25;115.55;;;9.30;99.90;;;;;;6068069;23;20152;-85
2022/01/03 23:07:21;;;;;;;123.05;111.45;;;9.30;99.90;;;;;;6170612;23;20148;-84
2022/01/03 23:10:27;;;;;;;132.88;120.85;;;9.40;99.90;;;;;;6070552;23;20207;-84
2022/01/03 23:22:29;;;;;;;;;;;;;;;;;;;;;
2022/01/03 23:25:27;;;;;;;116.15;104.90;;;9.20;99.90;;;;;;6130238;23;20189;-83
2022/01/03 23:28:34;;;;;;;131.00;119.15;;;9.20;99.90;;;;;;6128161;23;20155;-83
2022/01/03 23:34:26;;;;;;;112.07;100.80;;;9.20;99.90;;;;;;6170053;23;20209;-83
2022/01/03 23:44:52;;;;;;;119.03;107.65;;;9.10;99.90;;;;;;6020091;23;20600;-83
2022/01/03 23:48:07;;;;;;;;;;;;;;;;;;;;;
2022/01/03 23:51:41;;;;;;;;;;;;;;;;;;;;;
2022/01/03 23:57:59;;;;;;;;;;;;;;;;;;;;;
